createdAt,value
2022-09-07T00:01:53.762Z,56.33
2022-09-07T00:04:20.461Z,57.34
2022-09-07T00:06:47.158Z,58.38
2022-09-07T00:09:13.830Z,58.03
2022-09-07T00:11:40.511Z,57.75
2022-09-07T00:14:07.771Z,58.72
2022-09-07T00:16:34.460Z,57.81
2022-09-07T00:19:03.185Z,58.33
2022-09-07T00:21:30.364Z,59.74
2022-09-07T00:23:57.179Z,60.88
2022-09-07T00:26:29.571Z,61.54
2022-09-07T00:29:01.772Z,61.61
2022-09-07T00:31:30.227Z,61.37
2022-09-07T00:34:00.438Z,61.60
2022-09-07T00:36:27.385Z,61.06
2022-09-07T00:38:54.249Z,61.94
2022-09-07T00:41:22.573Z,61.37
2022-09-07T00:43:52.639Z,60.81
2022-09-07T00:46:28.277Z,60.32
2022-09-07T00:49:22.604Z,59.76
2022-09-07T00:51:54.134Z,60.44
2022-09-07T00:54:34.979Z,60.93
2022-09-07T00:57:01.827Z,61.75
2022-09-07T00:59:34.498Z,62.06
2022-09-07T01:02:01.600Z,60.74
2022-09-07T01:04:30.400Z,61.01
2022-09-07T01:06:57.281Z,61.47
2022-09-07T01:09:26.102Z,60.88
2022-09-07T01:11:54.468Z,61.91
2022-09-07T01:14:29.076Z,60.82
2022-09-07T01:17:30.716Z,59.67
2022-09-07T01:20:25.236Z,59.30
2022-09-07T01:23:10.524Z,61.22
2022-09-07T01:26:01.727Z,61.00
2022-09-07T01:28:32.405Z,60.93
2022-09-07T01:31:07.248Z,60.31
2022-09-07T01:33:55.708Z,60.28
2022-09-07T01:36:31.128Z,59.84
2022-09-07T01:39:04.474Z,60.68
2022-09-07T01:41:49.319Z,60.25
2022-09-07T01:44:27.013Z,59.92
2022-09-07T01:47:18.606Z,60.31
2022-09-07T01:49:47.903Z,60.08
2022-09-07T01:52:34.971Z,61.19
2022-09-07T01:55:13.861Z,63.27
2022-09-07T01:57:47.901Z,62.85
2022-09-07T02:00:18.523Z,63.19
2022-09-07T02:03:07.618Z,63.89
2022-09-07T02:05:43.773Z,63.57
2022-09-07T02:08:16.180Z,64.02
2022-09-07T02:10:50.590Z,64.59
2022-09-07T02:13:26.796Z,65.50
2022-09-07T02:16:16.762Z,64.97
2022-09-07T02:18:50.083Z,64.01
2022-09-07T02:21:22.041Z,64.57
2022-09-07T02:23:53.594Z,64.95
2022-09-07T02:26:23.940Z,64.67
2022-09-07T02:28:51.365Z,63.07
2022-09-07T02:31:18.273Z,64.58
2022-09-07T02:33:45.153Z,64.28
2022-09-07T02:36:15.083Z,64.68
2022-09-07T02:38:41.939Z,63.98
2022-09-07T02:41:33.836Z,64.53
2022-09-07T02:44:02.984Z,64.45
2022-09-07T02:46:44.982Z,64.04
2022-09-07T02:49:19.115Z,63.36
2022-09-07T02:52:03.603Z,63.40
2022-09-07T02:54:55.076Z,64.27
2022-09-07T02:57:58.674Z,63.86
2022-09-07T03:00:28.220Z,64.63
2022-09-07T03:03:24.542Z,63.35
2022-09-07T03:05:59.202Z,62.35
2022-09-07T03:08:44.428Z,63.29
2022-09-07T03:11:12.059Z,62.37
2022-09-07T03:13:38.712Z,62.17
2022-09-07T03:16:05.735Z,62.05
2022-09-07T03:18:32.554Z,61.57
2022-09-07T03:20:59.360Z,62.40
2022-09-07T03:23:25.960Z,62.38
2022-09-07T03:25:52.871Z,63.05
2022-09-07T03:28:19.511Z,63.25
2022-09-07T03:30:49.570Z,63.08
2022-09-07T03:33:17.340Z,62.17
2022-09-07T03:35:58.690Z,62.74
2022-09-07T03:38:25.387Z,62.81
2022-09-07T03:41:03.431Z,61.93
2022-09-07T03:43:30.320Z,61.42
2022-09-07T03:46:01.745Z,62.85
2022-09-07T03:48:35.278Z,63.34
2022-09-07T03:51:05.416Z,62.13
2022-09-07T03:53:34.054Z,61.78
2022-09-07T03:56:12.448Z,62.74
2022-09-07T03:58:39.369Z,63.17
2022-09-07T04:01:09.770Z,62.96
2022-09-07T04:03:37.356Z,62.33
2022-09-07T04:06:04.183Z,63.01
2022-09-07T04:08:32.917Z,64.24
2022-09-07T04:11:01.427Z,63.48
2022-09-07T04:13:30.179Z,62.80
2022-09-07T04:15:57.285Z,61.32
2022-09-07T04:18:24.405Z,61.82
2022-09-07T04:20:51.272Z,62.00
2022-09-07T04:23:19.051Z,62.09
2022-09-07T04:25:52.677Z,61.63
2022-09-07T04:28:20.831Z,62.77
2022-09-07T04:30:47.906Z,62.60
2022-09-07T04:33:14.747Z,62.99
2022-09-07T04:35:42.517Z,62.67
2022-09-07T04:38:14.267Z,62.75
2022-09-07T04:40:41.544Z,62.26
2022-09-07T04:43:09.594Z,62.38
2022-09-07T04:45:37.592Z,63.00
2022-09-07T04:48:05.448Z,61.56
2022-09-07T04:50:32.772Z,61.66
2022-09-07T04:52:59.372Z,62.22
2022-09-07T04:55:26.371Z,60.52
2022-09-07T04:57:52.982Z,60.63
2022-09-07T05:00:19.714Z,62.39
2022-09-07T05:02:46.461Z,64.09
2022-09-07T05:05:13.389Z,62.52
2022-09-07T05:07:40.056Z,63.16
2022-09-07T05:10:06.996Z,63.43
2022-09-07T05:12:33.615Z,63.04
2022-09-07T05:15:00.458Z,63.31
2022-09-07T05:17:27.520Z,63.59
2022-09-07T05:19:54.955Z,63.71
2022-09-07T05:22:22.367Z,62.63
2022-09-07T05:24:49.085Z,63.33
2022-09-07T05:27:15.680Z,63.79
2022-09-07T05:32:30.052Z,63.26
2022-09-07T05:34:56.748Z,62.80
2022-09-07T05:37:23.921Z,62.23
2022-09-07T05:39:52.453Z,62.88
2022-09-07T05:42:19.174Z,61.74
2022-09-07T05:44:46.042Z,61.86
2022-09-07T05:47:13.170Z,62.27
2022-09-07T05:49:40.095Z,63.06
2022-09-07T05:52:07.036Z,63.25
2022-09-07T05:54:33.755Z,63.62
2022-09-07T05:57:00.480Z,62.95
2022-09-07T05:59:27.122Z,62.00
2022-09-07T06:01:53.928Z,60.21
2022-09-07T06:04:20.666Z,61.13
2022-09-07T06:06:59.362Z,61.29
2022-09-07T06:09:34.424Z,60.43
2022-09-07T06:12:04.656Z,60.54
2022-09-07T06:14:32.155Z,60.73
2022-09-07T06:16:59.007Z,60.77
2022-09-07T06:19:25.722Z,60.57
2022-09-07T06:21:52.335Z,60.16
2022-09-07T06:24:19.093Z,59.31
2022-09-07T06:26:45.718Z,60.03
2022-09-07T06:29:12.547Z,59.36
2022-09-07T06:34:26.762Z,60.20
2022-09-07T06:36:53.391Z,60.44
2022-09-07T06:39:20.125Z,60.36
2022-09-07T06:42:02.085Z,60.48
2022-09-07T06:44:31.333Z,59.79
2022-09-07T06:47:05.248Z,58.98
2022-09-07T06:49:32.059Z,57.69
2022-09-07T06:51:58.845Z,58.40
2022-09-07T06:57:12.320Z,59.09
2022-09-07T06:59:39.542Z,57.73
2022-09-07T07:02:07.098Z,57.71
2022-09-07T07:04:39.483Z,58.70
2022-09-07T07:07:12.114Z,58.12
2022-09-07T07:09:39.125Z,58.09
2022-09-07T07:12:05.936Z,57.27
2022-09-07T07:14:35.510Z,57.76
2022-09-07T07:17:03.538Z,58.07
2022-09-07T07:19:30.267Z,58.10
2022-09-07T07:24:43.645Z,56.06
2022-09-07T07:27:10.249Z,57.06
2022-09-07T07:29:36.923Z,57.41
2022-09-07T07:32:04.361Z,56.61
2022-09-07T07:34:31.127Z,55.66
2022-09-07T07:36:57.734Z,56.10
2022-09-07T07:42:12.465Z,55.26
2022-09-07T07:44:39.189Z,55.01
2022-09-07T07:47:07.030Z,54.71
2022-09-07T07:49:33.785Z,53.40
2022-09-07T07:54:47.574Z,53.48
2022-09-07T07:57:14.527Z,53.23
2022-09-07T07:59:41.170Z,52.89
2022-09-07T08:02:14.092Z,53.01
2022-09-07T08:04:41.122Z,54.86
2022-09-07T08:07:10.933Z,55.08
2022-09-07T08:09:42.762Z,55.45
2022-09-07T08:12:12.176Z,55.06
2022-09-07T08:14:43.239Z,55.18
2022-09-07T08:17:13.201Z,56.50
2022-09-07T08:19:40.755Z,56.42
2022-09-07T08:22:08.838Z,56.16
2022-09-07T08:24:35.571Z,55.39
2022-09-07T08:27:02.484Z,56.71
2022-09-07T08:29:33.516Z,55.76
2022-09-07T08:32:02.180Z,56.67
2022-09-07T08:34:28.761Z,56.62
2022-09-07T08:36:55.443Z,56.17
2022-09-07T08:39:22.008Z,56.91
2022-09-07T08:41:55.628Z,56.37
2022-09-07T08:44:45.200Z,56.11
2022-09-07T08:47:43.683Z,56.24
2022-09-07T08:50:40.602Z,56.22
2022-09-07T08:53:13.675Z,56.31
2022-09-07T08:56:00.635Z,58.38
2022-09-07T08:58:53.418Z,59.52
2022-09-07T09:01:32.222Z,61.71
2022-09-07T09:04:16.541Z,62.21
2022-09-07T09:07:10.568Z,62.38
2022-09-07T09:09:40.287Z,62.65
2022-09-07T09:12:21.876Z,62.25
2022-09-07T09:14:57.280Z,63.32
2022-09-07T09:17:35.613Z,62.05
2022-09-07T09:20:24.636Z,63.22
2022-09-07T09:23:12.318Z,60.97
2022-09-07T09:25:45.910Z,63.37
2022-09-07T09:28:13.245Z,62.35
2022-09-07T09:30:39.972Z,61.27
2022-09-07T09:33:19.456Z,60.63
2022-09-07T09:35:51.477Z,61.01
2022-09-07T09:38:40.530Z,62.16
2022-09-07T09:41:09.455Z,61.86
2022-09-07T09:43:51.282Z,61.33
2022-09-07T09:46:25.968Z,60.13
2022-09-07T09:49:06.126Z,59.68
2022-09-07T09:54:33.177Z,56.32
2022-09-07T09:57:00.328Z,56.42
2022-09-07T10:05:27.699Z,56.70
2022-09-07T10:07:54.699Z,54.54
2022-09-07T10:10:21.666Z,54.85
2022-09-07T10:12:54.170Z,54.76
2022-09-07T10:15:40.405Z,54.38
2022-09-07T10:18:09.673Z,54.06
2022-09-07T10:20:38.103Z,52.74
2022-09-07T10:23:08.998Z,53.97
2022-09-07T10:25:39.676Z,54.66
2022-09-07T10:28:16.468Z,52.36
2022-09-07T10:30:46.158Z,51.64
2022-09-07T10:33:37.680Z,51.60
2022-09-07T10:36:29.577Z,52.10
2022-09-07T10:39:06.362Z,51.74
2022-09-07T10:41:36.244Z,52.46
2022-09-07T10:44:06.404Z,53.37
2022-09-07T10:46:57.993Z,53.50
2022-09-07T10:49:38.956Z,52.95
2022-09-07T10:52:26.831Z,54.81
2022-09-07T10:55:00.121Z,52.58
2022-09-07T10:57:35.300Z,49.61
2022-09-07T11:00:18.753Z,47.46
2022-09-07T11:06:15.202Z,41.35
2022-09-07T11:09:20.768Z,37.97
2022-09-07T11:12:01.360Z,36.07
2022-09-07T11:14:31.660Z,37.49
2022-09-07T11:17:03.377Z,37.32
2022-09-07T11:19:42.454Z,35.95
2022-09-07T11:22:12.047Z,32.95
2022-09-07T11:25:29.830Z,31.41
2022-09-07T11:28:14.752Z,33.08
2022-09-07T11:30:50.825Z,32.77
2022-09-07T11:37:13.709Z,33.17
2022-09-07T11:39:58.586Z,33.31
2022-09-07T11:45:22.140Z,37.82
2022-09-07T11:48:03.485Z,38.15
2022-09-07T11:50:36.069Z,39.00
2022-09-07T11:53:18.199Z,39.02
2022-09-07T11:55:49.643Z,40.28
2022-09-07T11:58:34.911Z,41.18
2022-09-07T12:01:19.883Z,41.70
2022-09-07T12:03:46.786Z,40.97
2022-09-07T12:06:31.355Z,40.43
2022-09-07T12:09:15.178Z,40.66
2022-09-07T12:11:50.620Z,39.82
2022-09-07T12:14:22.218Z,39.34
2022-09-07T12:17:19.759Z,39.77
2022-09-07T12:19:46.597Z,40.47
2022-09-07T12:22:22.408Z,41.97
2022-09-07T12:24:51.647Z,41.64
2022-09-07T12:27:21.559Z,41.59
2022-09-07T12:29:57.262Z,40.86
2022-09-07T12:32:55.423Z,40.30
2022-09-07T12:35:41.942Z,42.19
2022-09-07T12:38:17.488Z,40.44
2022-09-07T12:41:01.742Z,41.27
2022-09-07T12:43:31.806Z,41.11
2022-09-07T12:46:00.774Z,40.65
2022-09-07T12:48:48.951Z,40.50
2022-09-07T12:54:36.842Z,39.45
2022-09-07T12:57:31.255Z,39.63
2022-09-07T13:00:17.841Z,37.84
2022-09-07T13:09:35.469Z,38.71
2022-09-07T13:15:12.641Z,39.18
2022-09-07T13:17:43.792Z,39.92
2022-09-07T13:20:10.243Z,38.51
2022-09-07T13:22:36.911Z,39.62
2022-09-07T13:25:20.287Z,39.78
2022-09-07T13:28:03.941Z,39.57
2022-09-07T13:31:02.112Z,38.22
2022-09-07T13:33:28.797Z,39.77
2022-09-07T13:36:01.307Z,38.24
2022-09-07T13:38:30.554Z,38.38
2022-09-07T13:41:21.883Z,38.83
2022-09-07T13:43:50.228Z,38.55
2022-09-07T13:46:33.714Z,38.54
2022-09-07T13:49:13.535Z,38.00
2022-09-07T13:51:49.527Z,37.67
2022-09-07T13:54:37.867Z,37.14
2022-09-07T13:57:38.356Z,37.14
2022-09-07T14:00:07.604Z,37.47
2022-09-07T14:02:35.791Z,38.23
2022-09-07T14:05:03.171Z,38.43
2022-09-07T14:07:31.608Z,38.73
2022-09-07T14:10:17.665Z,38.72
2022-09-07T14:12:51.251Z,38.59
2022-09-07T14:15:18.230Z,37.08
2022-09-07T14:17:46.326Z,34.94
2022-09-07T14:20:15.643Z,35.15
2022-09-07T14:22:43.448Z,36.77
2022-09-07T14:25:18.950Z,38.57
2022-09-07T14:27:47.881Z,38.89
2022-09-07T14:30:26.139Z,39.53
2022-09-07T14:32:58.035Z,40.38
2022-09-07T14:35:28.483Z,40.56
2022-09-07T14:37:57.691Z,41.10
2022-09-07T14:40:25.975Z,41.51
2022-09-07T14:42:55.226Z,40.82
2022-09-07T14:45:26.354Z,41.52
2022-09-07T14:47:55.367Z,41.68
2022-09-07T14:50:26.618Z,42.17
2022-09-07T14:55:45.716Z,41.37
2022-09-07T14:58:15.373Z,41.50
2022-09-07T15:00:46.818Z,41.83
2022-09-07T15:03:35.530Z,40.38
2022-09-07T15:06:03.515Z,41.99
2022-09-07T15:08:38.606Z,41.17
2022-09-07T15:14:02.505Z,41.34
2022-09-07T15:16:35.414Z,39.96
2022-09-07T15:19:18.451Z,40.98
2022-09-07T15:21:45.805Z,41.90
2022-09-07T15:24:12.908Z,41.57
2022-09-07T15:29:32.500Z,41.31
2022-09-07T15:32:04.557Z,41.40
2022-09-07T15:34:32.505Z,40.14
2022-09-07T15:37:01.024Z,41.00
2022-09-07T15:39:34.409Z,40.11
2022-09-07T15:42:59.569Z,41.52
2022-09-07T15:44:50.208Z,41.33
2022-09-07T15:50:05.783Z,41.44
2022-09-07T15:52:33.002Z,41.76
2022-09-07T15:54:59.731Z,41.17
2022-09-07T16:00:13.651Z,41.69
2022-09-07T16:05:30.397Z,42.78
2022-09-07T16:10:44.578Z,42.33
2022-09-07T16:13:16.240Z,42.78
2022-09-07T16:15:45.844Z,43.23
2022-09-07T16:18:18.085Z,43.11
2022-09-07T16:20:46.131Z,43.51
2022-09-07T16:23:15.604Z,43.51
2022-09-07T16:25:55.569Z,44.20
2022-09-07T16:28:22.630Z,44.20
2022-09-07T16:30:49.279Z,44.06
2022-09-07T16:33:16.137Z,45.04
2022-09-07T16:35:42.744Z,46.03
2022-09-07T16:40:56.044Z,46.40
2022-09-07T16:43:22.989Z,48.66
2022-09-07T16:46:05.140Z,49.85
2022-09-07T16:48:34.212Z,50.84
2022-09-07T16:51:02.814Z,52.47
2022-09-07T16:53:31.454Z,54.16
2022-09-07T16:56:16.931Z,55.92
2022-09-07T16:58:46.598Z,58.78
2022-09-07T17:01:15.855Z,60.89
2022-09-07T17:03:43.150Z,63.69
2022-09-07T17:06:12.025Z,64.24
2022-09-07T17:08:40.197Z,63.51
2022-09-07T17:11:12.702Z,62.72
2022-09-07T17:13:40.990Z,62.13
2022-09-07T17:16:10.805Z,62.82
2022-09-07T17:21:28.019Z,65.01
2022-09-07T17:23:55.810Z,66.19
2022-09-07T17:26:26.903Z,67.69
2022-09-07T17:28:56.649Z,66.33
2022-09-07T17:34:19.764Z,65.18
2022-09-07T17:36:46.643Z,64.58
2022-09-07T17:39:16.405Z,65.01
2022-09-07T17:41:44.338Z,67.58
2022-09-07T17:44:11.304Z,65.83
2022-09-07T17:46:38.045Z,64.31
2022-09-07T17:49:07.107Z,65.47
2022-09-07T17:51:33.777Z,64.42
2022-09-07T17:54:02.819Z,65.03
2022-09-07T17:56:31.121Z,64.11
2022-09-07T18:01:45.326Z,66.64
2022-09-07T18:04:12.001Z,64.75
2022-09-07T18:06:40.227Z,64.53
2022-09-07T18:09:08.092Z,64.88
2022-09-07T18:11:50.904Z,64.68
2022-09-07T18:14:18.778Z,64.40
2022-09-07T18:16:48.806Z,63.96
2022-09-07T18:19:15.942Z,64.79
2022-09-07T18:21:43.159Z,66.62
2022-09-07T18:24:28.152Z,65.30
2022-09-07T18:26:55.007Z,65.88
2022-09-07T18:29:34.082Z,64.90
2022-09-07T18:32:05.520Z,64.14
2022-09-07T18:34:34.863Z,63.86
2022-09-07T18:37:01.607Z,63.45
2022-09-07T18:39:28.696Z,63.88
2022-09-07T18:41:55.708Z,65.32
2022-09-07T18:47:17.497Z,67.95
2022-09-07T18:49:44.395Z,68.98
2022-09-07T18:54:57.623Z,68.76
2022-09-07T18:57:25.185Z,66.84
2022-09-07T18:59:52.042Z,68.80
2022-09-07T19:02:20.151Z,67.83
2022-09-07T19:07:33.475Z,68.14
2022-09-07T19:10:00.974Z,66.93
2022-09-07T19:12:27.952Z,68.34
2022-09-07T19:14:54.591Z,68.19
2022-09-07T19:17:21.249Z,68.15
2022-09-07T19:19:48.620Z,69.16
2022-09-07T19:22:15.353Z,68.96
2022-09-07T19:24:41.942Z,69.04
2022-09-07T19:27:08.570Z,69.96
2022-09-07T19:29:35.461Z,70.89
2022-09-07T19:32:05.492Z,70.44
2022-09-07T19:34:37.605Z,69.90
2022-09-07T19:37:06.194Z,68.07
2022-09-07T19:39:33.097Z,68.21
2022-09-07T19:42:00.091Z,68.78
2022-09-07T19:44:26.658Z,67.63
2022-09-07T19:46:53.385Z,68.79
2022-09-07T19:49:20.184Z,68.13
2022-09-07T19:51:50.226Z,68.98
2022-09-07T19:54:16.933Z,69.03
2022-09-07T19:56:44.820Z,68.78
2022-09-07T19:59:12.380Z,69.35
2022-09-07T20:01:40.624Z,69.60
2022-09-07T20:04:15.982Z,69.13
2022-09-07T20:06:46.739Z,68.75
2022-09-07T20:09:17.452Z,70.03
2022-09-07T20:11:46.758Z,71.97
2022-09-07T20:14:14.716Z,72.03
2022-09-07T20:16:41.860Z,72.23
2022-09-07T20:19:08.726Z,70.24
2022-09-07T20:21:36.874Z,69.41
2022-09-07T20:24:04.534Z,68.68
2022-09-07T20:26:32.471Z,68.10
2022-09-07T20:29:23.318Z,67.43
2022-09-07T20:31:47.218Z,67.11
2022-09-07T20:34:14.114Z,68.66
2022-09-07T20:36:41.003Z,68.46
2022-09-07T20:39:08.012Z,68.50
2022-09-07T20:41:35.321Z,67.32
2022-09-07T20:44:03.402Z,66.83
2022-09-07T20:46:30.926Z,68.52
2022-09-07T20:48:57.626Z,69.42
2022-09-07T20:51:24.655Z,67.89
2022-09-07T20:53:51.626Z,68.18
2022-09-07T20:56:26.504Z,68.85
2022-09-07T20:59:01.070Z,68.91
2022-09-07T21:01:29.635Z,69.76
2022-09-07T21:03:58.343Z,70.03
2022-09-07T21:06:26.242Z,69.98
2022-09-07T21:08:53.291Z,69.64
2022-09-07T21:11:23.174Z,69.71
2022-09-07T21:14:07.697Z,70.42
2022-09-07T21:16:35.735Z,70.59
2022-09-07T21:19:04.747Z,69.80
2022-09-07T21:21:38.543Z,69.71
2022-09-07T21:24:06.530Z,69.46
2022-09-07T21:26:33.197Z,69.03
2022-09-07T21:29:02.566Z,69.00
2022-09-07T21:31:31.304Z,68.82
2022-09-07T21:34:00.127Z,69.32
2022-09-07T21:36:27.179Z,70.31
2022-09-07T21:38:54.515Z,70.25
2022-09-07T21:41:23.290Z,69.16
2022-09-07T21:43:54.999Z,68.72
2022-09-07T21:46:21.778Z,69.09
2022-09-07T21:48:48.364Z,68.50
2022-09-07T21:51:15.212Z,69.49
2022-09-07T21:53:42.615Z,70.94
2022-09-07T21:56:14.363Z,73.17
2022-09-07T21:58:41.199Z,73.51
2022-09-07T22:01:17.217Z,73.82
2022-09-07T22:03:46.396Z,72.29
2022-09-07T22:06:14.731Z,71.12
2022-09-07T22:08:42.577Z,70.16
2022-09-07T22:11:14.838Z,70.96
2022-09-07T22:13:42.503Z,71.75
2022-09-07T22:16:09.679Z,70.29
2022-09-07T22:18:37.951Z,68.09
2022-09-07T22:21:10.589Z,69.21
2022-09-07T22:26:06.706Z,68.47
2022-09-07T22:28:34.192Z,70.58
2022-09-07T22:31:14.634Z,70.97
2022-09-07T22:33:41.786Z,70.04
2022-09-07T22:36:17.582Z,69.26
2022-09-07T22:38:46.405Z,68.67
2022-09-07T22:41:24.696Z,69.73
2022-09-07T22:43:51.468Z,70.08
2022-09-07T22:46:20.295Z,70.19
2022-09-07T22:48:47.458Z,68.39
2022-09-07T22:51:14.632Z,68.68
2022-09-07T22:53:42.686Z,68.35
2022-09-07T22:56:15.124Z,69.64
2022-09-07T22:58:46.821Z,71.80
2022-09-07T23:01:13.502Z,70.58
2022-09-07T23:03:40.267Z,70.59
2022-09-07T23:06:07.157Z,69.59
2022-09-07T23:08:33.746Z,71.91
2022-09-07T23:11:05.209Z,72.52
2022-09-07T23:13:33.688Z,72.73
2022-09-07T23:16:07.362Z,72.45
2022-09-07T23:18:34.782Z,72.18
2022-09-07T23:21:02.155Z,72.19
2022-09-07T23:23:29.584Z,71.56
2022-09-07T23:25:56.422Z,71.45
2022-09-07T23:28:23.157Z,71.47
2022-09-07T23:30:51.226Z,71.91
2022-09-07T23:33:18.096Z,71.12
2022-09-07T23:35:55.688Z,70.46
2022-09-07T23:38:22.870Z,71.20
2022-09-07T23:40:49.440Z,71.25
2022-09-07T23:43:16.099Z,71.89
2022-09-07T23:45:42.663Z,70.17
2022-09-07T23:48:09.292Z,70.76
2022-09-07T23:50:35.904Z,70.89
2022-09-07T23:53:02.528Z,71.67
2022-09-07T23:55:29.083Z,71.05
2022-09-07T23:57:55.717Z,71.60
